Time;durP1;ratioP1;P1;durP2;ratioP2;P2;SDS_P1;SDS_P2;PMS_P1;PMS_P2;Temp;Humidity;BMP_temperature;BMP_pressure;BME280_temperature;BME280_humidity;BME280_pressure;Samples;Min_cycle;Max_cycle;Signal;HPM_P1;HPM_P2
2023/04/03 00:01:03;;;;;;;3.63;0.88;;;5.90;99.90;;;;;;6279590;22;20022;-89
2023/04/03 00:03:29;;;;;;;5.43;0.95;;;5.90;99.90;;;;;;6278570;22;20094;-90
2023/04/03 00:05:55;;;;;;;6.18;0.88;;;5.90;99.90;;;;;;6307588;22;20015;-90
2023/04/03 00:08:20;;;;;;;4.68;1.10;;;5.80;99.90;;;;;;6305553;22;20038;-90
2023/04/03 00:10:46;;;;;;;2.65;0.73;;;5.80;99.90;;;;;;6279215;22;20026;-89
2023/04/03 00:13:12;;;;;;;6.50;1.20;;;5.80;99.90;;;;;;6306348;22;20065;-89
2023/04/03 00:15:39;;;;;;;5.13;0.95;;;5.70;99.90;;;;;;6278766;22;20012;-90
2023/04/03 00:18:05;;;;;;;4.55;1.00;;;5.70;99.90;;;;;;6279805;22;20031;-89
2023/04/03 00:20:31;;;;;;;3.22;1.15;;;5.70;99.90;;;;;;6306277;22;20038;-90
2023/04/03 00:22:57;;;;;;;2.50;0.73;;;5.60;99.90;;;;;;6278417;22;20015;-89
2023/04/03 00:25:23;;;;;;;6.80;1.00;;;5.60;99.90;;;;;;6307533;22;20165;-90
2023/04/03 00:27:49;;;;;;;3.00;0.80;;;5.60;99.90;;;;;;6279735;22;20051;-89
2023/04/03 00:30:17;;;;;;;3.63;1.10;;;5.50;99.90;;;;;;6305227;22;20011;-90
2023/04/03 00:32:42;;;;;;;3.67;0.98;;;5.50;99.90;;;;;;6280193;22;20054;-89
2023/04/03 00:35:09;;;;;;;3.80;0.98;;;5.50;99.90;;;;;;6279867;22;20011;-89
2023/04/03 00:37:35;;;;;;;6.68;0.95;;;5.40;99.90;;;;;;6278857;22;20019;-89
2023/04/03 00:40:01;;;;;;;4.32;0.95;;;5.40;99.90;;;;;;6279492;22;20034;-89
2023/04/03 00:42:27;;;;;;;4.75;1.00;;;5.40;99.90;;;;;;6279234;22;20026;-90
2023/04/03 00:44:52;;;;;;;3.97;1.05;;;5.30;99.90;;;;;;6279403;22;20011;-90
2023/04/03 00:47:18;;;;;;;2.97;0.93;;;5.30;99.90;;;;;;6280146;22;20015;-90
2023/04/03 00:49:45;;;;;;;4.03;1.00;;;5.30;99.90;;;;;;6308261;22;20011;-90
2023/04/03 00:52:15;;;;;;;4.82;1.10;;;5.20;99.90;;;;;;6306620;22;20050;-91
2023/04/03 00:54:42;;;;;;;3.65;1.05;;;5.20;99.90;;;;;;6280557;22;20020;-90
2023/04/03 00:57:08;;;;;;;3.47;0.90;;;5.20;99.90;;;;;;6308160;22;20067;-90
2023/04/03 00:59:44;;;;;;;4.05;0.93;;;5.10;99.90;;;;;;6279163;22;20098;-90
2023/04/03 01:02:10;;;;;;;6.25;1.13;;;5.20;99.90;;;;;;6280476;22;20024;-89
2023/04/03 01:04:39;;;;;;;3.60;0.90;;;5.10;99.90;;;;;;6280002;22;20348;-90
2023/04/03 01:07:13;;;;;;;4.30;0.90;;;5.00;99.90;;;;;;6280089;22;20371;-90
2023/04/03 01:09:40;;;;;;;5.95;1.20;;;5.00;99.90;;;;;;6307858;22;20439;-91
2023/04/03 01:12:26;;;;;;;4.38;1.00;;;5.00;99.90;;;;;;6279667;22;20015;-90
2023/04/03 01:14:55;;;;;;;2.67;0.75;;;5.00;99.90;;;;;;6308276;22;20011;-89
2023/04/03 01:17:33;;;;;;;4.72;1.00;;;5.00;99.90;;;;;;6307655;22;20065;-90
2023/04/03 01:20:13;;;;;;;3.60;0.90;;;5.00;99.90;;;;;;6279578;22;20011;-90
2023/04/03 01:23:00;;;;;;;5.10;1.02;;;4.90;99.90;;;;;;6308084;22;20015;-90
2023/04/03 01:25:26;;;;;;;3.55;0.90;;;4.90;99.90;;;;;;6280048;22;20090;-90
2023/04/03 01:27:52;;;;;;;5.45;1.33;;;4.90;99.90;;;;;;6279414;22;20431;-90
2023/04/03 01:30:20;;;;;;;3.78;1.17;;;4.90;99.90;;;;;;6279844;22;20016;-91
2023/04/03 01:32:46;;;;;;;5.63;1.20;;;4.90;99.90;;;;;;6279796;22;20016;-91
2023/04/03 01:35:12;;;;;;;5.38;1.00;;;4.80;99.90;;;;;;6280074;22;20065;-91
2023/04/03 01:37:38;;;;;;;2.53;0.90;;;4.80;99.90;;;;;;6280266;22;20087;-91
2023/04/03 01:40:04;;;;;;;3.13;1.00;;;4.80;99.90;;;;;;6279109;22;20046;-91
2023/04/03 01:42:29;;;;;;;4.53;1.10;;;4.80;99.90;;;;;;6279637;22;20018;-90
2023/04/03 01:44:55;;;;;;;4.55;1.08;;;4.70;99.90;;;;;;6307730;22;20015;-91
2023/04/03 01:47:21;;;;;;;2.67;1.10;;;4.70;99.90;;;;;;6278832;22;20023;-91
2023/04/03 01:49:47;;;;;;;5.95;1.25;;;4.70;99.90;;;;;;6280242;22;20467;-91
2023/04/03 01:52:13;;;;;;;4.43;1.13;;;4.60;99.90;;;;;;6280067;22;20019;-90
2023/04/03 01:54:38;;;;;;;4.00;1.00;;;4.60;99.90;;;;;;6307203;22;20015;-91
2023/04/03 01:57:04;;;;;;;3.33;0.90;;;4.60;99.90;;;;;;6280261;22;20022;-90
2023/04/03 01:59:30;;;;;;;3.45;1.08;;;4.60;99.90;;;;;;6307561;22;20035;-91
2023/04/03 02:01:55;;;;;;;3.83;0.90;;;4.50;99.90;;;;;;6281274;22;20011;-90
2023/04/03 02:04:21;;;;;;;3.15;1.10;;;4.50;99.90;;;;;;6309501;22;20015;-90
2023/04/03 02:06:47;;;;;;;4.22;1.05;;;4.50;99.90;;;;;;6309836;22;20047;-90
2023/04/03 02:09:12;;;;;;;5.55;1.33;;;4.40;99.90;;;;;;6281111;22;20056;-91
2023/04/03 02:11:38;;;;;;;4.03;1.08;;;4.40;99.90;;;;;;6282179;22;20385;-90
2023/04/03 02:14:03;;;;;;;4.63;1.25;;;4.40;99.90;;;;;;6281441;22;20060;-89
2023/04/03 02:16:30;;;;;;;4.88;1.20;;;4.30;99.90;;;;;;6280753;22;20020;-91
2023/04/03 02:18:56;;;;;;;3.13;1.00;;;4.30;99.90;;;;;;6281748;22;20065;-90
2023/04/03 02:21:21;;;;;;;3.58;1.20;;;4.30;99.90;;;;;;6281808;22;20019;-91
2023/04/03 02:23:47;;;;;;;3.85;1.20;;;4.20;99.90;;;;;;6309171;22;20022;-91
2023/04/03 02:26:15;;;;;;;4.93;1.30;;;4.20;99.90;;;;;;6281344;22;20024;-91
2023/04/03 02:28:43;;;;;;;3.78;1.25;;;4.20;99.90;;;;;;6282016;22;20096;-90
2023/04/03 02:31:09;;;;;;;2.95;0.95;;;4.10;99.90;;;;;;6280877;22;20019;-90
2023/04/03 02:33:36;;;;;;;4.47;1.30;;;4.10;99.90;;;;;;6309152;22;20092;-90
2023/04/03 02:36:04;;;;;;;3.50;1.10;;;4.10;99.90;;;;;;6281251;22;20022;-91
2023/04/03 02:38:30;;;;;;;5.15;1.15;;;4.10;99.90;;;;;;6281661;22;20019;-91
2023/04/03 02:41:04;;;;;;;6.00;1.20;;;4.10;99.90;;;;;;6282138;22;20019;-90
2023/04/03 02:43:29;;;;;;;3.53;1.20;;;4.00;99.90;;;;;;6308263;22;20510;-90
2023/04/03 02:45:55;;;;;;;4.95;1.40;;;4.00;99.90;;;;;;6309037;22;20012;-90
2023/04/03 02:48:22;;;;;;;4.82;1.30;;;4.00;99.90;;;;;;6281199;22;20094;-91
2023/04/03 02:50:48;;;;;;;4.07;1.08;;;3.90;99.90;;;;;;6309087;22;20046;-91
2023/04/03 02:53:15;;;;;;;4.10;1.20;;;3.90;99.90;;;;;;6308969;22;20378;-90
2023/04/03 02:55:40;;;;;;;6.25;1.40;;;3.90;99.90;;;;;;6309269;22;20050;-90
2023/04/03 02:58:06;;;;;;;4.15;1.30;;;3.80;99.90;;;;;;6280585;22;20015;-90
2023/04/03 03:00:32;;;;;;;5.82;1.75;;;3.80;99.90;;;;;;6280887;22;20068;-90
2023/04/03 03:02:57;;;;;;;6.53;1.48;;;3.80;99.90;;;;;;6309528;22;20043;-90
2023/04/03 03:05:23;;;;;;;5.13;1.33;;;3.80;99.90;;;;;;6280648;22;20046;-90
2023/04/03 03:07:49;;;;;;;6.43;1.40;;;3.70;99.90;;;;;;6281352;22;20011;-90
2023/04/03 03:10:14;;;;;;;7.07;1.10;;;3.70;99.90;;;;;;6308634;22;20019;-91
2023/04/03 03:12:40;;;;;;;4.50;1.25;;;3.70;99.90;;;;;;6280456;22;20016;-90
2023/04/03 03:15:07;;;;;;;4.40;1.30;;;3.70;99.90;;;;;;6308635;22;20015;-90
2023/04/03 03:17:33;;;;;;;6.43;1.60;;;3.70;99.90;;;;;;6280670;22;20016;-90
2023/04/03 03:19:58;;;;;;;5.95;1.65;;;3.60;99.90;;;;;;6308379;22;20022;-89
2023/04/03 03:22:25;;;;;;;6.18;1.50;;;3.60;99.90;;;;;;6309101;22;20027;-90
2023/04/03 03:24:51;;;;;;;3.80;1.30;;;3.60;99.90;;;;;;6282272;22;20018;-91
2023/04/03 03:27:16;;;;;;;6.20;1.13;;;3.60;99.90;;;;;;6280262;22;20023;-90
2023/04/03 03:29:42;;;;;;;6.22;1.65;;;3.50;99.90;;;;;;6309070;22;20015;-91
2023/04/03 03:32:08;;;;;;;4.60;1.33;;;3.50;99.90;;;;;;6308380;22;20011;-91
2023/04/03 03:34:34;;;;;;;5.55;1.60;;;3.50;99.90;;;;;;6281476;22;20441;-91
2023/04/03 03:36:59;;;;;;;5.80;1.63;;;3.50;99.90;;;;;;6281664;22;20019;-91
2023/04/03 03:39:25;;;;;;;5.55;1.33;;;3.50;99.90;;;;;;6307677;22;20475;-90
2023/04/03 03:41:53;;;;;;;7.50;1.50;;;3.50;99.90;;;;;;6281181;22;20347;-90
2023/04/03 03:44:19;;;;;;;5.68;1.33;;;3.50;99.90;;;;;;6280532;22;20015;-90
2023/04/03 03:46:45;;;;;;;4.78;1.40;;;3.50;99.90;;;;;;6307786;22;20023;-91
2023/04/03 03:49:11;;;;;;;6.28;1.70;;;3.50;99.90;;;;;;6281060;22;20060;-90
2023/04/03 03:51:37;;;;;;;6.30;1.85;;;3.40;99.90;;;;;;6281142;22;20015;-90
2023/04/03 03:54:04;;;;;;;7.63;1.60;;;3.40;99.90;;;;;;6308431;22;20018;-90
2023/04/03 03:56:29;;;;;;;5.07;1.77;;;3.40;99.90;;;;;;6280488;22;20391;-89
2023/04/03 03:58:56;;;;;;;5.68;1.40;;;3.40;99.90;;;;;;6308439;22;20011;-90
2023/04/03 04:01:25;;;;;;;4.47;1.48;;;3.40;99.90;;;;;;6307538;22;20022;-90
2023/04/03 04:03:51;;;;;;;4.65;1.30;;;3.40;99.90;;;;;;6280666;22;20015;-88
2023/04/03 04:06:16;;;;;;;4.78;1.38;;;3.30;99.90;;;;;;6307215;22;20026;-91
2023/04/03 04:08:42;;;;;;;5.05;1.33;;;3.30;99.90;;;;;;6280663;22;20012;-91
2023/04/03 04:11:08;;;;;;;4.78;1.65;;;3.30;99.90;;;;;;6281335;22;20347;-92
2023/04/03 04:13:34;;;;;;;5.18;1.30;;;3.30;99.90;;;;;;6308421;22;20443;-92
2023/04/03 04:16:00;;;;;;;6.05;1.90;;;3.30;99.90;;;;;;6280761;22;20106;-92
2023/04/03 04:18:25;;;;;;;5.22;1.65;;;3.30;99.90;;;;;;6309297;22;20508;-92
2023/04/03 04:20:51;;;;;;;5.00;1.80;;;3.30;99.90;;;;;;6282514;22;20023;-93
2023/04/03 04:23:18;;;;;;;6.13;1.55;;;3.20;99.90;;;;;;6309114;22;20018;-91
2023/04/03 04:25:48;;;;;;;3.92;1.42;;;3.20;99.90;;;;;;6325435;22;20006;-96
2023/04/03 04:28:14;;;;;;;3.75;1.50;;;3.20;99.90;;;;;;6308020;22;20042;-96
2023/04/03 04:30:40;;;;;;;5.18;1.63;;;3.10;99.90;;;;;;6310403;22;20006;-96
2023/04/03 04:33:06;;;;;;;7.50;1.60;;;3.10;99.90;;;;;;6301657;22;20019;-95
2023/04/03 04:35:33;;;;;;;6.60;1.88;;;3.10;99.90;;;;;;6288268;22;20339;-91
2023/04/03 04:37:58;;;;;;;5.32;1.65;;;3.10;99.90;;;;;;6282434;22;20019;-90
2023/04/03 04:40:24;;;;;;;4.88;1.55;;;3.10;99.90;;;;;;6308052;22;20018;-89
2023/04/03 04:42:50;;;;;;;7.15;1.80;;;3.00;99.90;;;;;;6281251;22;20094;-91
2023/04/03 04:45:15;;;;;;;5.03;1.65;;;3.00;99.90;;;;;;6310530;22;20015;-92
2023/04/03 04:47:41;;;;;;;5.32;1.98;;;2.90;99.90;;;;;;6281794;22;20022;-91
2023/04/03 04:50:07;;;;;;;5.72;1.80;;;2.90;99.90;;;;;;6309056;22;20455;-92
2023/04/03 04:52:33;;;;;;;5.88;1.88;;;2.90;99.90;;;;;;6308960;22;20309;-91
2023/04/03 04:54:59;;;;;;;5.93;1.80;;;2.80;99.90;;;;;;6281702;22;20101;-92
2023/04/03 04:57:25;;;;;;;5.15;1.70;;;2.80;99.90;;;;;;6308884;22;20019;-91
2023/04/03 04:59:50;;;;;;;4.68;2.00;;;2.80;99.90;;;;;;6309322;22;20469;-91
2023/04/03 05:02:16;;;;;;;5.93;1.90;;;2.80;99.90;;;;;;6308720;22;20007;-92
2023/04/03 05:04:42;;;;;;;7.00;1.95;;;2.70;99.90;;;;;;6309471;22;20096;-91
2023/04/03 05:07:07;;;;;;;4.55;1.70;;;2.70;99.90;;;;;;6281813;22;20461;-91
2023/04/03 05:09:33;;;;;;;5.05;1.90;;;2.60;99.90;;;;;;6281539;22;20011;-91
2023/04/03 05:11:59;;;;;;;5.40;1.60;;;2.60;99.90;;;;;;6309404;22;20313;-91
2023/04/03 05:14:25;;;;;;;7.43;2.10;;;2.60;99.90;;;;;;6281547;22;20019;-92
2023/04/03 05:16:53;;;;;;;6.38;1.92;;;2.60;99.90;;;;;;6308576;22;20049;-91
2023/04/03 05:19:20;;;;;;;4.95;2.00;;;2.60;99.90;;;;;;6308820;22;20022;-92
2023/04/03 05:21:46;;;;;;;5.45;1.85;;;2.50;99.90;;;;;;6309654;22;20082;-91
2023/04/03 05:24:11;;;;;;;6.85;2.10;;;2.50;99.90;;;;;;6281751;22;20098;-93
2023/04/03 05:26:37;;;;;;;5.22;1.83;;;2.50;99.90;;;;;;6308478;22;20015;-93
2023/04/03 05:29:04;;;;;;;7.53;2.28;;;2.50;99.90;;;;;;6282346;22;20019;-92
2023/04/03 05:31:30;;;;;;;5.80;2.20;;;2.50;99.90;;;;;;6281711;22;20425;-92
2023/04/03 05:33:56;;;;;;;7.30;2.15;;;2.40;99.90;;;;;;6309511;22;20086;-92
2023/04/03 05:36:22;;;;;;;7.50;2.10;;;2.40;99.90;;;;;;6283545;22;20094;-91
2023/04/03 05:38:48;;;;;;;7.70;2.20;;;2.40;99.90;;;;;;6283706;22;20011;-92
2023/04/03 05:41:14;;;;;;;8.77;2.50;;;2.40;99.90;;;;;;6283413;22;20086;-93
2023/04/03 05:43:40;;;;;;;6.78;2.55;;;2.40;99.90;;;;;;6283835;22;20011;-91
2023/04/03 05:46:14;;;;;;;7.93;2.40;;;2.40;99.90;;;;;;6311211;22;20007;-94
2023/04/03 05:48:40;;;;;;;7.05;2.20;;;2.40;99.90;;;;;;6311172;22;20007;-94
2023/04/03 05:51:07;;;;;;;8.82;2.50;;;2.30;99.90;;;;;;6311051;22;20504;-93
2023/04/03 05:53:37;;;;;;;6.47;2.17;;;2.30;99.90;;;;;;6310905;22;20468;-93
2023/04/03 05:56:03;;;;;;;7.38;2.42;;;2.30;99.90;;;;;;6311603;22;20015;-93
2023/04/03 05:58:28;;;;;;;8.25;2.60;;;2.30;99.90;;;;;;6283640;22;20022;-93
2023/04/03 06:00:54;;;;;;;5.88;2.15;;;2.30;99.90;;;;;;6284339;22;20011;-94
2023/04/03 06:03:20;;;;;;;7.20;2.25;;;2.30;99.90;;;;;;6311732;22;20015;-93
2023/04/03 06:05:46;;;;;;;6.32;2.22;;;2.30;99.90;;;;;;6283903;22;20018;-94
2023/04/03 06:08:12;;;;;;;5.30;2.10;;;2.30;99.90;;;;;;6284535;22;20011;-93
2023/04/03 06:10:38;;;;;;;7.55;2.30;;;2.30;99.90;;;;;;6311492;22;20015;-93
2023/04/03 06:13:04;;;;;;;9.05;2.40;;;2.30;99.90;;;;;;6311285;22;20519;-92
2023/04/03 06:15:29;;;;;;;5.40;2.17;;;2.30;99.90;;;;;;6310478;22;20452;-93
2023/04/03 06:17:55;;;;;;;8.20;2.38;;;2.30;99.90;;;;;;6311088;22;20019;-93
2023/04/03 06:20:22;;;;;;;6.30;2.20;;;2.30;99.90;;;;;;6284526;22;20011;-95
2023/04/03 06:22:48;;;;;;;7.65;2.70;;;2.30;99.90;;;;;;6283165;22;20145;-93
2023/04/03 06:25:14;;;;;;;5.55;2.50;;;2.30;99.90;;;;;;6283726;22;20026;-93
2023/04/03 06:27:40;;;;;;;5.65;2.30;;;2.30;99.90;;;;;;6283722;22;20065;-93
2023/04/03 06:30:07;;;;;;;5.90;2.78;;;2.30;99.90;;;;;;6310423;22;20019;-94
2023/04/03 06:32:32;;;;;;;6.97;2.63;;;2.30;99.90;;;;;;6311370;22;20015;-93
2023/04/03 06:34:58;;;;;;;8.77;2.80;;;2.30;99.90;;;;;;6309839;22;20432;-92
2023/04/03 06:37:28;;;;;;;7.03;2.72;;;2.30;99.90;;;;;;6283057;22;20030;-92
2023/04/03 06:39:54;;;;;;;6.90;2.47;;;2.40;99.90;;;;;;6282797;22;20086;-93
2023/04/03 06:42:20;;;;;;;8.10;2.75;;;2.40;99.90;;;;;;6309235;22;20466;-93
2023/04/03 06:44:46;;;;;;;7.25;2.60;;;2.40;99.90;;;;;;6283121;22;20011;-93
2023/04/03 06:47:14;;;;;;;7.93;2.50;;;2.40;99.90;;;;;;6282515;22;20018;-93
2023/04/03 06:49:41;;;;;;;10.20;3.10;;;2.50;99.90;;;;;;6282995;22;20435;-93
2023/04/03 06:52:07;;;;;;;9.40;2.92;;;2.50;99.90;;;;;;6283187;22;20098;-93
2023/04/03 06:54:32;;;;;;;9.15;2.65;;;2.50;99.90;;;;;;6283351;22;20443;-93
2023/04/03 06:56:58;;;;;;;8.05;3.15;;;2.60;99.90;;;;;;6310177;22;20015;-95
2023/04/03 06:59:24;;;;;;;8.10;2.75;;;2.70;99.90;;;;;;6283033;22;20022;-95
2023/04/03 07:01:50;;;;;;;7.88;2.70;;;2.70;99.90;;;;;;6310518;22;20094;-94
2023/04/03 07:04:16;;;;;;;9.25;2.97;;;2.80;99.90;;;;;;6283273;22;20094;-93
2023/04/03 07:06:42;;;;;;;7.93;2.80;;;2.80;99.90;;;;;;6283129;22;20019;-94
2023/04/03 07:09:09;;;;;;;7.28;2.65;;;2.90;99.90;;;;;;6283715;22;20443;-93
2023/04/03 07:11:35;;;;;;;8.05;2.83;;;3.00;99.90;;;;;;6282572;22;20447;-92
2023/04/03 07:14:02;;;;;;;9.10;2.97;;;3.10;99.90;;;;;;6310628;22;20011;-93
2023/04/03 07:16:27;;;;;;;8.88;2.47;;;3.10;99.90;;;;;;6310736;22;20019;-94
2023/04/03 07:18:53;;;;;;;8.25;2.92;;;3.20;99.90;;;;;;6282338;22;20015;-93
2023/04/03 07:21:19;;;;;;;8.10;2.85;;;3.30;99.90;;;;;;6282549;22;20011;-95
2023/04/03 07:23:44;;;;;;;8.52;2.50;;;3.40;99.90;;;;;;6283236;22;20019;-94
2023/04/03 07:26:10;;;;;;;6.20;2.47;;;3.40;99.90;;;;;;6310717;22;20019;-92
2023/04/03 07:28:38;;;;;;;10.55;2.90;;;3.50;99.90;;;;;;6285345;22;20007;-96
2023/04/03 07:31:07;;;;;;;8.20;2.35;;;3.60;99.90;;;;;;6284559;22;20015;-96
2023/04/03 07:33:35;;;;;;;7.65;2.35;;;3.70;99.90;;;;;;6310099;22;20015;-95
2023/04/03 07:36:01;;;;;;;8.18;2.00;;;3.80;99.90;;;;;;6282734;22;20019;-95
2023/04/03 07:38:27;;;;;;;7.38;2.20;;;3.90;99.90;;;;;;6310983;22;20015;-93
2023/04/03 07:40:53;;;;;;;7.07;2.30;;;4.00;99.90;;;;;;6311938;22;20015;-94
2023/04/03 07:43:20;;;;;;;8.30;2.30;;;4.00;99.90;;;;;;6283749;22;20505;-93
2023/04/03 07:45:49;;;;;;;10.98;2.67;;;4.20;99.90;;;;;;6283493;22;20026;-93
2023/04/03 07:48:15;;;;;;;8.23;2.50;;;4.30;99.90;;;;;;6283236;22;20015;-93
2023/04/03 07:50:42;;;;;;;9.20;2.10;;;4.40;99.90;;;;;;6282682;22;20336;-94
2023/04/03 07:53:08;;;;;;;5.65;2.08;;;4.50;99.90;;;;;;6282012;22;20506;-93
2023/04/03 07:55:34;;;;;;;7.35;2.03;;;4.60;99.90;;;;;;6310679;22;20011;-96
2023/04/03 07:57:59;;;;;;;5.65;1.58;;;4.70;99.90;;;;;;6282221;22;20037;-92
2023/04/03 08:00:25;;;;;;;8.40;2.30;;;4.80;99.90;;;;;;6282061;22;20459;-93
2023/04/03 08:02:51;;;;;;;5.45;1.80;;;4.90;99.90;;;;;;6282983;22;20448;-93
2023/04/03 08:05:18;;;;;;;6.35;2.03;;;4.90;99.90;;;;;;6282534;22;20012;-92
2023/04/03 08:07:45;;;;;;;4.88;1.58;;;5.00;99.90;;;;;;6282304;22;20336;-94
2023/04/03 08:10:10;;;;;;;8.50;2.08;;;5.10;99.90;;;;;;6281621;22;20106;-93
2023/04/03 08:12:36;;;;;;;6.22;2.08;;;5.20;99.90;;;;;;6310544;22;20439;-93
2023/04/03 08:15:03;;;;;;;7.70;1.90;;;5.20;99.90;;;;;;6281421;22;20004;-94
2023/04/03 08:17:29;;;;;;;5.72;1.65;;;5.30;99.90;;;;;;6281906;22;20766;-92
2023/04/03 08:19:55;;;;;;;6.45;2.00;;;5.40;99.90;;;;;;6281727;22;20019;-93
2023/04/03 08:22:20;;;;;;;5.20;1.65;;;5.50;99.90;;;;;;6281265;22;20443;-95
2023/04/03 08:24:46;;;;;;;5.55;1.73;;;5.50;99.90;;;;;;6283208;22;20015;-95
2023/04/03 08:27:12;;;;;;;5.30;1.77;;;5.60;99.90;;;;;;6310309;22;20011;-95
2023/04/03 08:29:38;;;;;;;5.88;1.58;;;5.70;99.90;;;;;;6310607;22;20018;-94
2023/04/03 08:32:04;;;;;;;7.95;2.20;;;5.80;99.90;;;;;;6309250;22;20415;-94
2023/04/03 08:34:30;;;;;;;5.07;1.73;;;5.80;99.90;;;;;;6281569;22;20082;-91
2023/04/03 08:36:56;;;;;;;6.68;1.95;;;5.90;99.90;;;;;;6282265;22;20062;-94
2023/04/03 08:39:21;;;;;;;7.18;1.65;;;6.00;99.90;;;;;;6282795;22;20011;-93
2023/04/03 08:41:47;;;;;;;6.00;1.50;;;6.00;99.90;;;;;;6301202;22;20015;-95
2023/04/03 08:44:18;;;;;;;6.68;1.60;;;6.10;99.90;;;;;;6284070;22;20102;-95
2023/04/03 08:46:52;;;;;;;8.00;1.73;;;6.20;99.90;;;;;;6282805;22;20019;-94
2023/04/03 08:49:32;;;;;;;7.82;1.73;;;6.30;99.90;;;;;;6309224;22;20015;-93
2023/04/03 08:52:00;;;;;;;5.15;1.45;;;6.40;99.90;;;;;;6309593;22;20061;-95
2023/04/03 08:54:50;;;;;;;5.55;1.50;;;6.40;99.90;;;;;;6281298;22;20022;-93
2023/04/03 08:57:17;;;;;;;5.07;1.70;;;6.50;99.90;;;;;;6308441;22;20019;-92
2023/04/03 08:59:43;;;;;;;5.80;1.48;;;6.60;99.90;;;;;;6283509;22;20022;-96
2023/04/03 09:02:26;;;;;;;3.63;1.13;;;6.70;99.90;;;;;;6309393;22;20459;-93
2023/04/03 09:04:52;;;;;;;7.95;1.80;;;6.70;99.90;;;;;;6282568;22;20078;-93
2023/04/03 09:07:32;;;;;;;4.07;1.40;;;6.80;99.90;;;;;;6309128;22;20018;-93
2023/04/03 09:10:02;;;;;;;6.55;1.60;;;6.90;99.90;;;;;;6282806;22;20018;-94
2023/04/03 09:12:42;;;;;;;6.90;1.20;;;7.00;99.90;;;;;;6309397;22;20011;-93
2023/04/03 09:15:24;;;;;;;4.20;1.25;;;7.10;99.90;;;;;;6282845;22;20039;-94
2023/04/03 09:17:55;;;;;;;6.15;1.30;;;7.20;99.90;;;;;;6309702;22;20082;-95
2023/04/03 09:20:48;;;;;;;6.90;1.50;;;7.30;99.90;;;;;;6281986;22;20141;-94
2023/04/03 09:23:22;;;;;;;5.28;1.50;;;7.30;99.90;;;;;;6309453;22;20043;-94
2023/04/03 09:25:54;;;;;;;5.55;1.40;;;7.40;99.90;;;;;;6309213;22;20026;-93
2023/04/03 09:28:19;;;;;;;5.07;1.02;;;7.50;99.90;;;;;;6308876;22;20466;-93
2023/04/03 09:30:46;;;;;;;7.05;1.63;;;7.60;99.90;;;;;;6281654;22;20015;-92
2023/04/03 09:33:13;;;;;;;5.35;1.38;;;7.60;99.90;;;;;;6309046;22;20011;-93
2023/04/03 09:35:41;;;;;;;4.60;1.30;;;7.70;99.90;;;;;;6309087;22;20019;-92
2023/04/03 09:38:09;;;;;;;5.70;1.10;;;7.80;99.90;;;;;;6281212;22;20015;-91
2023/04/03 09:41:02;;;;;;;5.20;1.48;;;7.90;99.90;;;;;;6281796;22;20022;-94
2023/04/03 09:43:34;;;;;;;5.93;1.50;;;8.00;99.90;;;;;;6256015;22;20094;-95
2023/04/03 09:46:31;;;;;;;6.22;1.60;;;8.10;99.90;;;;;;6284802;22;20082;-95
2023/04/03 09:49:05;;;;;;;4.55;1.30;;;8.10;99.90;;;;;;6310633;22;20022;-94
2023/04/03 09:51:32;;;;;;;3.75;1.10;;;8.20;99.90;;;;;;6283121;22;20015;-95
2023/04/03 09:53:58;;;;;;;6.50;1.40;;;8.30;99.90;;;;;;6284795;22;20553;-95
2023/04/03 09:56:29;;;;;;;5.68;1.48;;;8.40;99.90;;;;;;6285933;22;20015;-93
2023/04/03 09:58:58;;;;;;;4.35;1.63;;;8.50;99.90;;;;;;6286803;22;20180;-96
2023/04/03 10:01:28;;;;;;;4.57;1.60;;;8.50;99.90;;;;;;6316242;22;20462;-92
2023/04/03 10:04:11;;;;;;;4.35;1.38;;;8.60;99.90;;;;;;6314731;22;20379;-95
2023/04/03 10:06:49;;;;;;;9.05;1.40;;;8.70;99.90;;;;;;6285715;22;20026;-94
2023/04/03 10:09:35;;;;;;;3.60;1.23;;;8.70;99.90;;;;;;6333581;22;20015;-94
2023/04/03 10:12:15;;;;;;;4.53;1.30;;;8.80;99.90;;;;;;6311697;22;20047;-95
2023/04/03 10:14:53;;;;;;;4.70;1.00;;;8.90;99.90;;;;;;6321324;22;20012;-95
2023/04/03 10:17:22;;;;;;;5.57;1.27;;;9.00;99.90;;;;;;6285561;22;20152;-95
2023/04/03 10:20:26;;;;;;;4.72;1.08;;;9.10;99.90;;;;;;6310790;22;20015;-94
2023/04/03 10:23:14;;;;;;;3.10;0.85;;;9.20;99.90;;;;;;6290069;22;20068;-94
2023/04/03 10:26:04;;;;;;;3.70;1.10;;;9.30;99.90;;;;;;6290314;22;20335;-94
2023/04/03 10:28:56;;;;;;;5.13;1.20;;;9.30;99.90;;;;;;6286666;22;20030;-94
2023/04/03 10:31:31;;;;;;;3.78;1.00;;;9.40;99.90;;;;;;6312904;22;20019;-93
2023/04/03 10:34:08;;;;;;;5.22;1.08;;;9.50;99.90;;;;;;6314654;22;20366;-95
2023/04/03 10:36:34;;;;;;;3.08;1.15;;;9.60;99.90;;;;;;6315921;22;20372;-95
2023/04/03 10:39:28;;;;;;;4.80;1.13;;;9.60;99.90;;;;;;6289137;22;20011;-95
2023/04/03 10:42:07;;;;;;;4.90;1.30;;;9.70;99.90;;;;;;6318069;22;20015;-94
2023/04/03 10:44:44;;;;;;;3.17;0.82;;;9.80;99.90;;;;;;6286366;22;20064;-94
2023/04/03 10:47:22;;;;;;;5.70;0.93;;;9.80;99.90;;;;;;6284743;22;20011;-94
2023/04/03 10:50:14;;;;;;;4.32;1.23;;;9.90;99.90;;;;;;6285517;22;20012;-94
2023/04/03 10:53:17;;;;;;;5.13;1.13;;;9.90;99.90;;;;;;6283976;22;20016;-92
2023/04/03 10:55:56;;;;;;;4.43;1.15;;;10.00;99.90;;;;;;6282201;22;20439;-95
2023/04/03 10:58:45;;;;;;;4.85;0.98;;;10.10;99.90;;;;;;6309972;22;20015;-94
2023/04/03 11:01:20;;;;;;;5.43;1.08;;;10.20;99.90;;;;;;6282516;22;20019;-94
2023/04/03 11:03:57;;;;;;;3.33;0.88;;;10.30;99.90;;;;;;6282788;22;20064;-94
2023/04/03 11:06:26;;;;;;;3.03;0.80;;;10.30;99.90;;;;;;6283472;22;20102;-93
2023/04/03 11:09:04;;;;;;;3.53;0.90;;;10.40;99.90;;;;;;6285061;22;20015;-93
2023/04/03 11:11:37;;;;;;;2.05;0.70;;;10.40;99.90;;;;;;6281849;22;20045;-94
2023/04/03 11:14:13;;;;;;;4.63;1.10;;;10.50;99.90;;;;;;6278853;22;20043;-94
2023/04/03 11:16:45;;;;;;;3.35;1.10;;;10.50;99.90;;;;;;6278269;22;20080;-94
2023/04/03 11:19:23;;;;;;;3.83;1.13;;;10.60;99.90;;;;;;6280074;22;20064;-90
2023/04/03 11:22:08;;;;;;;4.28;0.85;;;10.70;99.90;;;;;;6309273;22;20011;-91
2023/04/03 11:24:38;;;;;;;2.72;0.88;;;10.70;99.90;;;;;;6307885;22;20015;-91
2023/04/03 11:27:05;;;;;;;4.32;1.10;;;10.70;99.70;;;;;;6281603;22;20018;-91
2023/04/03 11:29:43;;;;;;;2.55;0.90;;;10.80;99.90;;;;;;6281365;22;20015;-91
2023/04/03 11:32:29;;;;;;;3.60;0.80;;;10.80;99.90;;;;;;6279423;22;20019;-90
2023/04/03 11:34:59;;;;;;;3.10;0.95;;;10.90;99.90;;;;;;6278983;22;20020;-89
2023/04/03 11:37:26;;;;;;;3.92;0.90;;;11.00;99.90;;;;;;6304558;22;20015;-91
2023/04/03 11:40:20;;;;;;;6.40;1.10;;;11.00;99.90;;;;;;6277620;22;20500;-90
2023/04/03 11:42:52;;;;;;;4.30;0.90;;;11.10;99.90;;;;;;6252566;22;20045;-91
2023/04/03 11:45:27;;;;;;;2.63;0.85;;;11.10;99.90;;;;;;6277084;22;20019;-90
2023/04/03 11:48:12;;;;;;;4.25;1.10;;;11.20;99.90;;;;;;6306441;22;20120;-91
2023/04/03 11:50:38;;;;;;;3.80;1.00;;;11.30;99.90;;;;;;6305768;22;20015;-90
2023/04/03 11:53:05;;;;;;;5.63;1.20;;;11.30;99.90;;;;;;6280767;22;20111;-91
2023/04/03 11:55:30;;;;;;;4.05;1.10;;;11.30;99.90;;;;;;6281005;22;20018;-90
2023/04/03 11:57:59;;;;;;;3.85;1.10;;;11.40;99.90;;;;;;6282034;22;20094;-90
2023/04/03 12:00:43;;;;;;;4.30;1.13;;;11.50;99.90;;;;;;6308156;22;20073;-90
2023/04/03 12:03:28;;;;;;;6.85;1.00;;;11.50;99.90;;;;;;6281081;22;20503;-90
2023/04/03 12:05:57;;;;;;;4.05;1.13;;;11.60;99.90;;;;;;6280009;22;20023;-90
2023/04/03 12:08:47;;;;;;;4.80;1.08;;;11.60;99.90;;;;;;6280560;22;20382;-90
2023/04/03 12:11:12;;;;;;;3.10;1.10;;;11.60;99.90;;;;;;6280000;22;20023;-91
2023/04/03 12:13:56;;;;;;;4.18;0.90;;;11.60;99.90;;;;;;6280645;22;20317;-93
2023/04/03 12:16:26;;;;;;;;;;;11.70;99.90;;;;;;6308702;22;20039;-92
2023/04/03 12:18:58;;;;;;;4.20;1.23;;;11.70;99.90;;;;;;6309551;22;19914;-95
2023/04/03 12:21:36;;;;;;;7.30;1.30;;;11.70;99.90;;;;;;6308337;22;20011;-92
2023/04/03 12:24:23;;;;;;;4.10;1.20;;;11.80;99.90;;;;;;6308723;22;20050;-92
2023/04/03 12:27:00;;;;;;;4.28;1.30;;;11.90;99.90;;;;;;6309680;22;20014;-90
2023/04/03 12:29:34;;;;;;;4.10;1.17;;;11.90;99.90;;;;;;6309189;22;20026;-91
2023/04/03 12:32:32;;;;;;;2.55;1.00;;;12.00;99.90;;;;;;6308812;22;20462;-93
2023/04/03 12:35:10;;;;;;;5.15;1.20;;;12.00;99.90;;;;;;6308725;22;20015;-91
2023/04/03 12:38:08;;;;;;;4.57;1.27;;;12.10;99.90;;;;;;6281056;22;20023;-90
2023/04/03 12:40:49;;;;;;;4.47;1.38;;;12.10;99.70;;;;;;6280543;22;20068;-91
2023/04/03 12:43:56;;;;;;;4.95;1.20;;;12.10;99.90;;;;;;6280705;22;20021;-90
2023/04/03 12:46:23;;;;;;;4.03;1.33;;;12.10;98.30;;;;;;6282108;22;20026;-93
2023/04/03 12:48:58;;;;;;;4.35;1.10;;;12.10;99.30;;;;;;6308778;22;20015;-92
2023/04/03 12:51:43;;;;;;;4.00;1.00;;;12.10;99.80;;;;;;6283199;22;20020;-92
2023/04/03 12:54:23;;;;;;;3.85;1.10;;;12.20;99.90;;;;;;6282547;22;20022;-92
2023/04/03 12:56:50;;;;;;;2.92;1.08;;;12.20;99.60;;;;;;6283183;22;20015;-96
2023/04/03 12:59:26;;;;;;;3.80;1.20;;;12.30;99.90;;;;;;6285271;22;20038;-91
2023/04/03 13:01:57;;;;;;;4.45;1.10;;;12.30;99.80;;;;;;6283477;22;20043;-92
2023/04/03 13:04:24;;;;;;;3.60;1.13;;;12.30;99.50;;;;;;6280853;22;20072;-90
2023/04/03 13:06:51;;;;;;;4.00;1.33;;;12.40;99.90;;;;;;6308551;22;20022;-90
2023/04/03 13:09:30;;;;;;;4.25;1.40;;;12.40;99.80;;;;;;6309383;22;20050;-95